• Join FlightAware (Why Join?)
  • Login
  • US Flag 
12:47AM EDT


 

Airport Tracker/Info


-or-


 

Live Flight TrackerFlight Track Log ✈ FFT919 ✈ 14-Jul-2013 ✈ KTTN - KRDU

Flight Track Log - Related Links

Times and Time Zones

All times are in EDT time to prevent confusion due to time zone crossing. See the FFT919 flight status page for this flight to view local times or setup timezone preferences in your user account.

Time Position Orientation Groundspeed Altitude Reporting Facility
EDT Latitude Longitude Course Direction KTS MPH feet Rate Location/Type
02:20PM 40.2667 -74.8333 237° Southwest 132 152 1,300  Level Philadelphia TRACON
02:20PM 40.2500 -74.8667 237° Southwest 143 165 2,300 1,800 Climbing Philadelphia TRACON
02:21PM 40.1833 -74.9000 201° Southwest 221 254 4,600 2,220 Climbing Philadelphia TRACON
02:22PM 40.1333 -74.9500 217° Southwest 230 265 7,000 1,200 Climbing Philadelphia TRACON
02:23PM 40.0833 -74.9833 207° Southwest 279 321 7,000 780 Level Philadelphia TRACON
02:24PM 40.0167 -75.0333 210° Southwest 271 312 8,600 1,500 Climbing Philadelphia TRACON
02:25PM 39.9500 -75.0833 210° Southwest 286 329 10,000 420 Climbing Philadelphia TRACON
02:28PM 39.7961 -75.1919 208° Southwest 290 334 10,000 480 Level Washington Center
02:29PM 39.7214 -75.2436 208° Southwest 295 339 11,600 1,080 Climbing Washington Center
02:30PM 39.6361 -75.3033 208° Southwest 322 371 12,200 1,560 Climbing Washington Center
02:31PM 39.5403 -75.3225 189° South 336 387 14,800 1,860 Climbing Washington Center
02:32PM 39.4383 -75.3389 187° South 358 412 16,000 960 Climbing Washington Center
02:33PM 39.3236 -75.3608 188° South 378 435 16,800 480 Climbing Washington Center
02:34PM 39.2194 -75.3744 186° South 378 435 17,000 420 Climbing Washington Center
02:35PM 39.1175 -75.3964 189° South 383 441 17,700 900 Climbing Washington Center
02:36PM 39.0319 -75.4072 186° South 383 441 18,900 1,800 Climbing Washington Center
02:37PM 38.8986 -75.4289 187° South 395 455 21,400 1,980 Climbing Washington Center
02:38PM 38.7839 -75.4478 187° South 412 474 23,000 1,560 Climbing Washington Center
02:39PM 38.6631 -75.4614 185° South 423 487 24,600 1,620 Climbing Washington Center
02:40PM 38.5422 -75.4803 187° South 441 507 26,300 1,680 Climbing Washington Center
02:41PM 38.4211 -75.5017 188° South 446 513 28,000 840 Climbing Washington Center
02:42PM 38.3275 -75.5281 192° South 446 513 28,000  Level Washington Center
02:43PM 38.2086 -75.6075 208° Southwest 446 513 28,000  Level Washington Center
02:44PM 38.1022 -75.7053 216° Southwest 447 514 28,000  Level Washington Center
02:45PM 38.0061 -75.8053 219° Southwest 454 522 28,000  Level Washington Center
02:46PM 37.8994 -75.8969 214° Southwest 460 529 28,000  Level Washington Center
02:47PM 37.7992 -75.9939 217° Southwest 460 529 28,000 -120 Level Washington Center
02:48PM 37.6986 -76.0958 219° Southwest 460 529 27,800 -360 Descending Washington Center
02:49PM 37.5939 -76.1842 214° Southwest 460 529 27,300 -600 Descending Washington Center
02:50PM 37.4933 -76.2775 216° Southwest 465 535 26,700 -660 Descending Washington Center
02:51PM 37.3906 -76.3733 217° Southwest 465 535 26,100 -600 Descending Washington Center
02:52PM 37.2919 -76.4664 217° Southwest 453 521 25,500 -600 Descending Washington Center
02:53PM 37.2078 -76.5750 226° Southwest 447 514 24,900 -600 Descending Washington Center
02:54PM 37.1314 -76.6964 232° Southwest 441 507 24,300 -660 Descending Washington Center
02:55PM 37.0553 -76.8125 231° Southwest 441 507 23,700 -600 Descending Washington Center
02:56PM 36.9831 -76.9258 231° Southwest 435 501 23,200 -600 Descending Washington Center
02:57PM 36.9108 -77.0361 231° Southwest 430 495 22,600 -1,140 Descending Washington Center
02:58PM 36.8386 -77.1489 231° Southwest 425 489 21,000 -1,320 Descending Washington Center
02:59PM 36.7661 -77.2592 231° Southwest 420 483 20,000 -960 Descending Washington Center
03:00PM 36.6958 -77.3664 231° Southwest 415 478 19,100 -1,020 Descending Washington Center
03:01PM 36.6275 -77.4733 231° Southwest 410 472 18,100 -780 Descending Washington Center
03:02PM 36.5589 -77.5753 230° Southwest 403 464 17,600 -780 Descending Washington Center
03:03PM 36.4925 -77.6794 232° Southwest 397 457 16,600 -780 Descending Washington Center
03:04PM 36.4281 -77.7811 232° Southwest 391 450 16,100 -420 Descending Washington Center
03:05PM 36.3636 -77.8825 232° Southwest 386 444 15,800 -420 Descending Washington Center
03:06PM 36.2928 -77.9861 230° Southwest 366 421 15,400 -360 Descending Washington Center
03:07PM 36.2347 -78.0744 231° Southwest 379 436 15,100 -1,080 Descending Washington Center
03:08PM 36.1547 -78.2006 232° Southwest 357 411 13,000 -1,620 Descending Washington Center
03:09PM 36.1197 -78.2739 239° Southwest 362 417 11,900 -1,200 Descending Washington Center
03:10PM 36.0564 -78.4053 239° Southwest 336 387 10,600 -960 Descending Washington Center
03:11PM 36.0297 -78.4633 240° Southwest 338 389 10,000 -840 Descending Washington Center
03:12PM 35.9842 -78.5414 234° Southwest 311 358 9,200 -840 Descending Washington Center
03:13PM 35.9325 -78.6011 223° Southwest 278 320 8,400 -660 Descending Washington Center
03:14PM 35.8792 -78.6503 217° Southwest 255 293 7,900 -300 Descending Washington Center
03:15PM 35.8278 -78.6994 218° Southwest 238 274 7,900 -960 Level Washington Center
03:16PM 35.7611 -78.7789 224° Southwest 236 272 5,800 -1,740 Descending Washington Center
03:17PM 35.7406 -78.8444 249° West 239 275 4,200 -1,200 Descending Washington Center
03:18PM 35.7917 -78.8800 331° Northwest 223 257 3,500 -1,140 Descending Washington Center
03:19PM 35.8261 -78.8456 39° Northeast 158 182 2,000 -1,500 Descending Washington Center
03:20PM 35.8542 -78.8108 45° Northeast 132 152 700 -1,320 Descending Washington Center
03:22PM 35.8667 -78.7833 349° North  Level FlightAware Approximate